sensor_id;sensor_type;location;lat;lon;timestamp;P1;durP1;ratioP1;P2;durP2;ratioP2
43248;SDS011;29216;51.248;6.808;2022-12-20T00:02:10;3.22;;;2.75;;
43248;SDS011;29216;51.248;6.808;2022-12-20T00:04:36;5.97;;;2.42;;
43248;SDS011;29216;51.248;6.808;2022-12-20T00:07:02;3.83;;;2.30;;
43248;SDS011;29216;51.248;6.808;2022-12-20T00:09:28;3.97;;;2.25;;
43248;SDS011;29216;51.248;6.808;2022-12-20T00:11:53;5.03;;;2.58;;
43248;SDS011;29216;51.248;6.808;2022-12-20T00:14:19;5.60;;;2.45;;
43248;SDS011;29216;51.248;6.808;2022-12-20T00:16:45;2.50;;;2.30;;
43248;SDS011;29216;51.248;6.808;2022-12-20T00:19:10;4.90;;;2.50;;
43248;SDS011;29216;51.248;6.808;2022-12-20T00:21:36;3.65;;;2.03;;
43248;SDS011;29216;51.248;6.808;2022-12-20T00:24:02;4.07;;;2.17;;
43248;SDS011;29216;51.248;6.808;2022-12-20T00:26:30;2.67;;;2.15;;
43248;SDS011;29216;51.248;6.808;2022-12-20T00:28:57;2.63;;;2.13;;
43248;SDS011;29216;51.248;6.808;2022-12-20T00:31:23;3.50;;;2.95;;
43248;SDS011;29216;51.248;6.808;2022-12-20T00:33:51;3.40;;;2.33;;
43248;SDS011;29216;51.248;6.808;2022-12-20T00:36:18;4.60;;;2.50;;
43248;SDS011;29216;51.248;6.808;2022-12-20T00:38:46;3.40;;;2.15;;
43248;SDS011;29216;51.248;6.808;2022-12-20T00:41:14;3.97;;;2.58;;
43248;SDS011;29216;51.248;6.808;2022-12-20T00:43:41;3.47;;;2.30;;
43248;SDS011;29216;51.248;6.808;2022-12-20T00:46:08;8.75;;;2.47;;
43248;SDS011;29216;51.248;6.808;2022-12-20T00:48:35;5.18;;;2.42;;
43248;SDS011;29216;51.248;6.808;2022-12-20T00:51:02;3.10;;;2.40;;
43248;SDS011;29216;51.248;6.808;2022-12-20T00:53:30;6.32;;;2.30;;
43248;SDS011;29216;51.248;6.808;2022-12-20T00:55:56;3.92;;;2.25;;
43248;SDS011;29216;51.248;6.808;2022-12-20T00:58:24;4.35;;;2.40;;
43248;SDS011;29216;51.248;6.808;2022-12-20T01:00:50;5.78;;;2.47;;
43248;SDS011;29216;51.248;6.808;2022-12-20T01:03:16;3.55;;;2.28;;
43248;SDS011;29216;51.248;6.808;2022-12-20T01:05:58;4.40;;;2.38;;
43248;SDS011;29216;51.248;6.808;2022-12-20T01:08:26;3.80;;;2.65;;
43248;SDS011;29216;51.248;6.808;2022-12-20T01:10:57;4.35;;;2.42;;
43248;SDS011;29216;51.248;6.808;2022-12-20T01:13:23;6.00;;;2.30;;
43248;SDS011;29216;51.248;6.808;2022-12-20T01:15:48;4.28;;;2.53;;
43248;SDS011;29216;51.248;6.808;2022-12-20T01:18:14;3.75;;;2.40;;
43248;SDS011;29216;51.248;6.808;2022-12-20T01:20:39;3.58;;;2.53;;
43248;SDS011;29216;51.248;6.808;2022-12-20T01:23:05;4.85;;;2.40;;
43248;SDS011;29216;51.248;6.808;2022-12-20T01:25:31;4.95;;;2.90;;
43248;SDS011;29216;51.248;6.808;2022-12-20T01:27:56;4.47;;;2.92;;
43248;SDS011;29216;51.248;6.808;2022-12-20T01:30:22;4.63;;;2.92;;
43248;SDS011;29216;51.248;6.808;2022-12-20T01:32:47;4.38;;;2.35;;
43248;SDS011;29216;51.248;6.808;2022-12-20T01:35:13;4.43;;;3.03;;
43248;SDS011;29216;51.248;6.808;2022-12-20T01:37:39;5.07;;;2.70;;
43248;SDS011;29216;51.248;6.808;2022-12-20T01:40:05;3.47;;;2.50;;
43248;SDS011;29216;51.248;6.808;2022-12-20T01:42:34;3.42;;;2.40;;
43248;SDS011;29216;51.248;6.808;2022-12-20T01:45:00;2.75;;;2.22;;
43248;SDS011;29216;51.248;6.808;2022-12-20T01:47:25;3.85;;;2.72;;
43248;SDS011;29216;51.248;6.808;2022-12-20T01:49:56;4.30;;;2.08;;
43248;SDS011;29216;51.248;6.808;2022-12-20T01:55:06;3.20;;;2.25;;
43248;SDS011;29216;51.248;6.808;2022-12-20T01:57:46;4.15;;;2.70;;
43248;SDS011;29216;51.248;6.808;2022-12-20T02:00:17;4.95;;;2.88;;
43248;SDS011;29216;51.248;6.808;2022-12-20T02:02:44;2.90;;;2.38;;
43248;SDS011;29216;51.248;6.808;2022-12-20T02:05:11;5.07;;;2.47;;
43248;SDS011;29216;51.248;6.808;2022-12-20T02:07:38;4.97;;;2.53;;
43248;SDS011;29216;51.248;6.808;2022-12-20T02:10:06;4.05;;;2.50;;
43248;SDS011;29216;51.248;6.808;2022-12-20T02:12:43;4.93;;;2.55;;
43248;SDS011;29216;51.248;6.808;2022-12-20T02:20:46;4.07;;;2.50;;
43248;SDS011;29216;51.248;6.808;2022-12-20T02:23:39;3.72;;;2.75;;
43248;SDS011;29216;51.248;6.808;2022-12-20T02:34:21;4.28;;;2.58;;
43248;SDS011;29216;51.248;6.808;2022-12-20T02:36:49;5.15;;;2.63;;
43248;SDS011;29216;51.248;6.808;2022-12-20T02:39:15;3.28;;;2.80;;
43248;SDS011;29216;51.248;6.808;2022-12-20T02:41:50;4.30;;;2.78;;
43248;SDS011;29216;51.248;6.808;2022-12-20T02:44:19;4.43;;;2.88;;
43248;SDS011;29216;51.248;6.808;2022-12-20T02:47:08;5.25;;;2.90;;
43248;SDS011;29216;51.248;6.808;2022-12-20T02:49:39;3.70;;;2.80;;
43248;SDS011;29216;51.248;6.808;2022-12-20T02:52:06;5.68;;;2.97;;
43248;SDS011;29216;51.248;6.808;2022-12-20T02:54:35;4.03;;;2.63;;
43248;SDS011;29216;51.248;6.808;2022-12-20T02:57:05;5.10;;;3.10;;
43248;SDS011;29216;51.248;6.808;2022-12-20T02:59:41;5.85;;;3.05;;
43248;SDS011;29216;51.248;6.808;2022-12-20T03:02:12;4.85;;;3.00;;
43248;SDS011;29216;51.248;6.808;2022-12-20T03:04:39;4.70;;;3.28;;
43248;SDS011;29216;51.248;6.808;2022-12-20T03:07:10;6.88;;;3.15;;
43248;SDS011;29216;51.248;6.808;2022-12-20T03:09:38;5.93;;;3.53;;
43248;SDS011;29216;51.248;6.808;2022-12-20T03:12:05;4.60;;;3.00;;
43248;SDS011;29216;51.248;6.808;2022-12-20T03:14:31;4.28;;;3.00;;
43248;SDS011;29216;51.248;6.808;2022-12-20T03:16:57;4.68;;;3.38;;
43248;SDS011;29216;51.248;6.808;2022-12-20T03:19:23;4.93;;;3.38;;
43248;SDS011;29216;51.248;6.808;2022-12-20T03:21:49;3.97;;;3.00;;
43248;SDS011;29216;51.248;6.808;2022-12-20T03:24:15;7.40;;;3.40;;
43248;SDS011;29216;51.248;6.808;2022-12-20T03:26:41;3.50;;;3.20;;
43248;SDS011;29216;51.248;6.808;2022-12-20T03:29:07;7.45;;;3.40;;
43248;SDS011;29216;51.248;6.808;2022-12-20T03:31:33;6.45;;;3.65;;
43248;SDS011;29216;51.248;6.808;2022-12-20T03:33:59;6.25;;;3.72;;
43248;SDS011;29216;51.248;6.808;2022-12-20T03:36:25;5.80;;;3.33;;
43248;SDS011;29216;51.248;6.808;2022-12-20T03:38:51;5.05;;;3.78;;
43248;SDS011;29216;51.248;6.808;2022-12-20T03:41:19;6.57;;;3.97;;
43248;SDS011;29216;51.248;6.808;2022-12-20T03:43:46;6.93;;;3.83;;
43248;SDS011;29216;51.248;6.808;2022-12-20T03:46:15;9.35;;;3.78;;
43248;SDS011;29216;51.248;6.808;2022-12-20T03:48:41;4.25;;;3.63;;
43248;SDS011;29216;51.248;6.808;2022-12-20T03:51:07;5.65;;;3.60;;
43248;SDS011;29216;51.248;6.808;2022-12-20T03:53:32;8.40;;;4.43;;
43248;SDS011;29216;51.248;6.808;2022-12-20T03:55:58;7.55;;;4.00;;
43248;SDS011;29216;51.248;6.808;2022-12-20T03:58:24;6.03;;;3.78;;
43248;SDS011;29216;51.248;6.808;2022-12-20T04:00:49;4.75;;;3.70;;
43248;SDS011;29216;51.248;6.808;2022-12-20T04:03:15;8.23;;;4.82;;
43248;SDS011;29216;51.248;6.808;2022-12-20T04:05:41;9.18;;;4.00;;
43248;SDS011;29216;51.248;6.808;2022-12-20T04:08:07;5.70;;;4.22;;
43248;SDS011;29216;51.248;6.808;2022-12-20T04:10:32;9.55;;;4.45;;
43248;SDS011;29216;51.248;6.808;2022-12-20T04:13:18;6.63;;;4.32;;
43248;SDS011;29216;51.248;6.808;2022-12-20T04:15:43;7.20;;;4.63;;
43248;SDS011;29216;51.248;6.808;2022-12-20T04:18:09;6.43;;;4.32;;
43248;SDS011;29216;51.248;6.808;2022-12-20T04:20:35;8.35;;;4.43;;
43248;SDS011;29216;51.248;6.808;2022-12-20T04:23:01;9.73;;;5.53;;
43248;SDS011;29216;51.248;6.808;2022-12-20T04:25:26;5.38;;;4.30;;
43248;SDS011;29216;51.248;6.808;2022-12-20T04:27:52;6.90;;;4.45;;
43248;SDS011;29216;51.248;6.808;2022-12-20T04:30:18;5.85;;;4.78;;
43248;SDS011;29216;51.248;6.808;2022-12-20T04:32:43;6.75;;;4.72;;
43248;SDS011;29216;51.248;6.808;2022-12-20T04:35:09;7.25;;;5.18;;
43248;SDS011;29216;51.248;6.808;2022-12-20T04:37:35;8.82;;;4.72;;
43248;SDS011;29216;51.248;6.808;2022-12-20T04:40:01;7.70;;;5.15;;
43248;SDS011;29216;51.248;6.808;2022-12-20T04:42:26;5.47;;;4.45;;
43248;SDS011;29216;51.248;6.808;2022-12-20T04:44:52;9.95;;;4.55;;
43248;SDS011;29216;51.248;6.808;2022-12-20T04:47:18;6.90;;;4.90;;
43248;SDS011;29216;51.248;6.808;2022-12-20T04:49:43;7.60;;;4.82;;
43248;SDS011;29216;51.248;6.808;2022-12-20T04:52:09;6.97;;;4.70;;
43248;SDS011;29216;51.248;6.808;2022-12-20T04:57:19;9.88;;;5.10;;
43248;SDS011;29216;51.248;6.808;2022-12-20T04:59:45;8.90;;;5.10;;
43248;SDS011;29216;51.248;6.808;2022-12-20T05:02:10;9.18;;;5.35;;
43248;SDS011;29216;51.248;6.808;2022-12-20T05:04:36;9.10;;;4.80;;
43248;SDS011;29216;51.248;6.808;2022-12-20T05:07:01;8.18;;;5.10;;
43248;SDS011;29216;51.248;6.808;2022-12-20T05:09:27;8.35;;;5.15;;
43248;SDS011;29216;51.248;6.808;2022-12-20T05:11:53;8.15;;;4.95;;
43248;SDS011;29216;51.248;6.808;2022-12-20T05:14:19;6.35;;;4.95;;
43248;SDS011;29216;51.248;6.808;2022-12-20T05:16:44;9.95;;;5.53;;
43248;SDS011;29216;51.248;6.808;2022-12-20T05:19:10;14.93;;;4.85;;
43248;SDS011;29216;51.248;6.808;2022-12-20T05:21:36;13.13;;;4.45;;
43248;SDS011;29216;51.248;6.808;2022-12-20T05:24:20;7.72;;;4.63;;
43248;SDS011;29216;51.248;6.808;2022-12-20T05:27:04;8.02;;;4.70;;
43248;SDS011;29216;51.248;6.808;2022-12-20T05:29:29;9.43;;;5.10;;
43248;SDS011;29216;51.248;6.808;2022-12-20T05:31:55;7.72;;;4.65;;
43248;SDS011;29216;51.248;6.808;2022-12-20T05:34:21;6.55;;;4.25;;
43248;SDS011;29216;51.248;6.808;2022-12-20T05:36:46;7.68;;;5.03;;
43248;SDS011;29216;51.248;6.808;2022-12-20T05:39:12;8.90;;;4.80;;
43248;SDS011;29216;51.248;6.808;2022-12-20T05:41:38;5.22;;;4.22;;
43248;SDS011;29216;51.248;6.808;2022-12-20T05:44:05;7.25;;;4.30;;
43248;SDS011;29216;51.248;6.808;2022-12-20T05:46:30;8.63;;;4.20;;
43248;SDS011;29216;51.248;6.808;2022-12-20T05:48:56;8.13;;;4.15;;
43248;SDS011;29216;51.248;6.808;2022-12-20T05:51:21;12.35;;;4.60;;
43248;SDS011;29216;51.248;6.808;2022-12-20T05:53:47;6.32;;;3.72;;
43248;SDS011;29216;51.248;6.808;2022-12-20T05:56:13;5.93;;;4.05;;
43248;SDS011;29216;51.248;6.808;2022-12-20T05:58:38;8.50;;;4.03;;
43248;SDS011;29216;51.248;6.808;2022-12-20T06:01:04;8.43;;;4.18;;
43248;SDS011;29216;51.248;6.808;2022-12-20T06:03:31;6.00;;;4.07;;
43248;SDS011;29216;51.248;6.808;2022-12-20T06:05:57;7.13;;;3.90;;
43248;SDS011;29216;51.248;6.808;2022-12-20T06:08:23;6.88;;;4.13;;
43248;SDS011;29216;51.248;6.808;2022-12-20T06:10:49;5.57;;;4.00;;
43248;SDS011;29216;51.248;6.808;2022-12-20T06:13:15;4.30;;;3.70;;
43248;SDS011;29216;51.248;6.808;2022-12-20T06:15:41;4.57;;;3.88;;
43248;SDS011;29216;51.248;6.808;2022-12-20T06:18:07;5.25;;;4.05;;
43248;SDS011;29216;51.248;6.808;2022-12-20T06:20:33;4.90;;;3.50;;
43248;SDS011;29216;51.248;6.808;2022-12-20T06:22:59;5.70;;;3.90;;
43248;SDS011;29216;51.248;6.808;2022-12-20T06:25:26;8.25;;;4.57;;
43248;SDS011;29216;51.248;6.808;2022-12-20T06:27:52;7.25;;;4.15;;
43248;SDS011;29216;51.248;6.808;2022-12-20T06:30:19;5.43;;;3.95;;
43248;SDS011;29216;51.248;6.808;2022-12-20T06:32:46;7.32;;;4.10;;
43248;SDS011;29216;51.248;6.808;2022-12-20T06:35:12;6.38;;;3.70;;
43248;SDS011;29216;51.248;6.808;2022-12-20T06:37:38;6.65;;;3.67;;
43248;SDS011;29216;51.248;6.808;2022-12-20T06:40:05;6.07;;;3.85;;
43248;SDS011;29216;51.248;6.808;2022-12-20T06:42:35;4.68;;;3.53;;
43248;SDS011;29216;51.248;6.808;2022-12-20T06:45:01;6.38;;;3.78;;
43248;SDS011;29216;51.248;6.808;2022-12-20T06:47:27;5.95;;;3.70;;
43248;SDS011;29216;51.248;6.808;2022-12-20T06:49:53;7.97;;;3.72;;
43248;SDS011;29216;51.248;6.808;2022-12-20T06:52:18;5.35;;;3.78;;
43248;SDS011;29216;51.248;6.808;2022-12-20T06:54:44;5.82;;;3.75;;
43248;SDS011;29216;51.248;6.808;2022-12-20T06:57:10;5.63;;;3.20;;
43248;SDS011;29216;51.248;6.808;2022-12-20T06:59:36;8.70;;;3.65;;
43248;SDS011;29216;51.248;6.808;2022-12-20T07:02:01;4.13;;;3.55;;
43248;SDS011;29216;51.248;6.808;2022-12-20T07:04:27;4.72;;;3.72;;
43248;SDS011;29216;51.248;6.808;2022-12-20T07:06:53;8.00;;;3.70;;
43248;SDS011;29216;51.248;6.808;2022-12-20T07:09:18;6.00;;;4.20;;
43248;SDS011;29216;51.248;6.808;2022-12-20T07:11:44;4.38;;;3.33;;
43248;SDS011;29216;51.248;6.808;2022-12-20T07:14:10;6.32;;;3.47;;
43248;SDS011;29216;51.248;6.808;2022-12-20T07:16:36;6.22;;;3.55;;
43248;SDS011;29216;51.248;6.808;2022-12-20T07:19:01;4.40;;;3.38;;
43248;SDS011;29216;51.248;6.808;2022-12-20T07:21:27;4.72;;;3.28;;
43248;SDS011;29216;51.248;6.808;2022-12-20T07:23:56;6.30;;;3.28;;
43248;SDS011;29216;51.248;6.808;2022-12-20T07:26:22;7.80;;;3.38;;
43248;SDS011;29216;51.248;6.808;2022-12-20T07:28:48;5.80;;;3.30;;
43248;SDS011;29216;51.248;6.808;2022-12-20T07:31:13;5.00;;;3.30;;
43248;SDS011;29216;51.248;6.808;2022-12-20T07:33:39;6.93;;;3.30;;
43248;SDS011;29216;51.248;6.808;2022-12-20T07:36:06;7.63;;;3.70;;
43248;SDS011;29216;51.248;6.808;2022-12-20T07:38:34;5.63;;;3.40;;
43248;SDS011;29216;51.248;6.808;2022-12-20T07:41:00;7.57;;;3.88;;
43248;SDS011;29216;51.248;6.808;2022-12-20T07:43:32;7.43;;;3.60;;
43248;SDS011;29216;51.248;6.808;2022-12-20T07:45:58;6.82;;;3.50;;
43248;SDS011;29216;51.248;6.808;2022-12-20T07:48:23;4.70;;;3.45;;
43248;SDS011;29216;51.248;6.808;2022-12-20T07:50:52;6.28;;;3.58;;
43248;SDS011;29216;51.248;6.808;2022-12-20T07:53:21;5.18;;;3.38;;
43248;SDS011;29216;51.248;6.808;2022-12-20T07:55:49;7.55;;;3.38;;
43248;SDS011;29216;51.248;6.808;2022-12-20T07:58:15;4.93;;;3.65;;
43248;SDS011;29216;51.248;6.808;2022-12-20T08:00:43;6.32;;;3.85;;
43248;SDS011;29216;51.248;6.808;2022-12-20T08:03:13;5.80;;;4.00;;
43248;SDS011;29216;51.248;6.808;2022-12-20T08:05:43;5.72;;;3.22;;
43248;SDS011;29216;51.248;6.808;2022-12-20T08:08:12;5.55;;;3.63;;
43248;SDS011;29216;51.248;6.808;2022-12-20T08:10:40;7.28;;;3.60;;
43248;SDS011;29216;51.248;6.808;2022-12-20T08:13:05;7.05;;;3.97;;
43248;SDS011;29216;51.248;6.808;2022-12-20T08:15:32;7.05;;;3.80;;
43248;SDS011;29216;51.248;6.808;2022-12-20T08:17:59;5.97;;;4.03;;
43248;SDS011;29216;51.248;6.808;2022-12-20T08:20:24;9.60;;;3.58;;
43248;SDS011;29216;51.248;6.808;2022-12-20T08:22:50;5.07;;;3.55;;
43248;SDS011;29216;51.248;6.808;2022-12-20T08:25:16;6.75;;;3.55;;
43248;SDS011;29216;51.248;6.808;2022-12-20T08:27:42;5.28;;;3.63;;
43248;SDS011;29216;51.248;6.808;2022-12-20T08:30:08;5.82;;;3.67;;
43248;SDS011;29216;51.248;6.808;2022-12-20T08:32:35;4.43;;;2.90;;
43248;SDS011;29216;51.248;6.808;2022-12-20T08:35:01;8.82;;;3.50;;
43248;SDS011;29216;51.248;6.808;2022-12-20T08:37:27;5.13;;;3.28;;
43248;SDS011;29216;51.248;6.808;2022-12-20T08:39:52;5.63;;;3.60;;
43248;SDS011;29216;51.248;6.808;2022-12-20T08:42:18;4.13;;;2.97;;
43248;SDS011;29216;51.248;6.808;2022-12-20T08:44:44;8.07;;;3.92;;
43248;SDS011;29216;51.248;6.808;2022-12-20T08:47:09;5.07;;;3.10;;
43248;SDS011;29216;51.248;6.808;2022-12-20T08:49:35;5.90;;;3.40;;
43248;SDS011;29216;51.248;6.808;2022-12-20T08:52:01;8.40;;;4.05;;
43248;SDS011;29216;51.248;6.808;2022-12-20T08:54:27;5.65;;;3.50;;
43248;SDS011;29216;51.248;6.808;2022-12-20T08:56:52;5.45;;;3.10;;
43248;SDS011;29216;51.248;6.808;2022-12-20T08:59:18;5.55;;;3.47;;
43248;SDS011;29216;51.248;6.808;2022-12-20T09:01:43;5.43;;;3.28;;
43248;SDS011;29216;51.248;6.808;2022-12-20T09:04:10;7.90;;;3.53;;
43248;SDS011;29216;51.248;6.808;2022-12-20T09:06:35;4.72;;;3.15;;
43248;SDS011;29216;51.248;6.808;2022-12-20T09:09:02;4.95;;;3.28;;
43248;SDS011;29216;51.248;6.808;2022-12-20T09:11:28;3.78;;;3.10;;
43248;SDS011;29216;51.248;6.808;2022-12-20T09:13:54;4.22;;;3.33;;
43248;SDS011;29216;51.248;6.808;2022-12-20T09:16:22;8.27;;;3.30;;
43248;SDS011;29216;51.248;6.808;2022-12-20T09:18:50;4.85;;;3.00;;
43248;SDS011;29216;51.248;6.808;2022-12-20T09:21:18;4.78;;;3.38;;
43248;SDS011;29216;51.248;6.808;2022-12-20T09:23:44;3.95;;;3.20;;
43248;SDS011;29216;51.248;6.808;2022-12-20T09:26:11;5.47;;;3.60;;
43248;SDS011;29216;51.248;6.808;2022-12-20T09:28:38;6.88;;;3.25;;
43248;SDS011;29216;51.248;6.808;2022-12-20T09:31:05;9.57;;;3.75;;
43248;SDS011;29216;51.248;6.808;2022-12-20T09:33:33;8.77;;;3.40;;
43248;SDS011;29216;51.248;6.808;2022-12-20T09:35:59;6.68;;;3.53;;
43248;SDS011;29216;51.248;6.808;2022-12-20T09:38:26;7.10;;;3.92;;
43248;SDS011;29216;51.248;6.808;2022-12-20T09:40:53;5.57;;;3.45;;
43248;SDS011;29216;51.248;6.808;2022-12-20T09:43:22;6.88;;;3.50;;
43248;SDS011;29216;51.248;6.808;2022-12-20T09:45:53;8.32;;;3.47;;
43248;SDS011;29216;51.248;6.808;2022-12-20T09:48:22;7.97;;;3.65;;
43248;SDS011;29216;51.248;6.808;2022-12-20T09:56:21;6.13;;;3.50;;
43248;SDS011;29216;51.248;6.808;2022-12-20T10:01:30;7.03;;;3.47;;
43248;SDS011;29216;51.248;6.808;2022-12-20T10:03:58;4.90;;;3.20;;
43248;SDS011;29216;51.248;6.808;2022-12-20T10:14:36;8.27;;;3.90;;
43248;SDS011;29216;51.248;6.808;2022-12-20T10:23:10;5.43;;;3.20;;
43248;SDS011;29216;51.248;6.808;2022-12-20T10:25:37;6.25;;;3.50;;
43248;SDS011;29216;51.248;6.808;2022-12-20T10:28:10;15.35;;;3.65;;
43248;SDS011;29216;51.248;6.808;2022-12-20T10:33:07;6.03;;;3.65;;
43248;SDS011;29216;51.248;6.808;2022-12-20T10:35:45;5.57;;;3.42;;
43248;SDS011;29216;51.248;6.808;2022-12-20T10:38:12;5.57;;;4.25;;
43248;SDS011;29216;51.248;6.808;2022-12-20T10:43:18;7.72;;;3.28;;
43248;SDS011;29216;51.248;6.808;2022-12-20T10:48:31;9.25;;;3.50;;
43248;SDS011;29216;51.248;6.808;2022-12-20T10:51:03;5.13;;;3.10;;
43248;SDS011;29216;51.248;6.808;2022-12-20T10:53:58;5.28;;;3.75;;
43248;SDS011;29216;51.248;6.808;2022-12-20T10:56:26;5.95;;;3.30;;
43248;SDS011;29216;51.248;6.808;2022-12-20T10:58:59;5.35;;;2.92;;
43248;SDS011;29216;51.248;6.808;2022-12-20T11:01:48;5.88;;;2.78;;
43248;SDS011;29216;51.248;6.808;2022-12-20T11:04:24;7.57;;;3.78;;
43248;SDS011;29216;51.248;6.808;2022-12-20T11:06:52;6.43;;;2.97;;
43248;SDS011;29216;51.248;6.808;2022-12-20T11:14:23;6.75;;;3.15;;
43248;SDS011;29216;51.248;6.808;2022-12-20T11:16:52;4.70;;;2.80;;
43248;SDS011;29216;51.248;6.808;2022-12-20T11:19:30;6.70;;;2.97;;
43248;SDS011;29216;51.248;6.808;2022-12-20T11:22:07;4.97;;;2.70;;
43248;SDS011;29216;51.248;6.808;2022-12-20T11:35:46;5.40;;;2.78;;
43248;SDS011;29216;51.248;6.808;2022-12-20T11:54:40;8.40;;;2.90;;
43248;SDS011;29216;51.248;6.808;2022-12-20T11:57:17;3.75;;;2.90;;
43248;SDS011;29216;51.248;6.808;2022-12-20T11:59:53;3.53;;;2.50;;
43248;SDS011;29216;51.248;6.808;2022-12-20T12:02:31;5.03;;;3.05;;
43248;SDS011;29216;51.248;6.808;2022-12-20T12:05:03;8.35;;;2.97;;
43248;SDS011;29216;51.248;6.808;2022-12-20T12:07:41;5.35;;;2.85;;
43248;SDS011;29216;51.248;6.808;2022-12-20T12:12:44;4.32;;;2.90;;
43248;SDS011;29216;51.248;6.808;2022-12-20T12:23:06;4.45;;;3.20;;
43248;SDS011;29216;51.248;6.808;2022-12-20T12:26:23;4.78;;;3.15;;
43248;SDS011;29216;51.248;6.808;2022-12-20T12:28:53;5.10;;;3.22;;
43248;SDS011;29216;51.248;6.808;2022-12-20T12:31:33;5.75;;;3.60;;
43248;SDS011;29216;51.248;6.808;2022-12-20T12:44:41;5.30;;;2.85;;
43248;SDS011;29216;51.248;6.808;2022-12-20T12:47:36;7.85;;;2.88;;
43248;SDS011;29216;51.248;6.808;2022-12-20T12:50:07;4.40;;;3.20;;
43248;SDS011;29216;51.248;6.808;2022-12-20T12:52:44;6.10;;;3.10;;
43248;SDS011;29216;51.248;6.808;2022-12-20T12:55:35;8.95;;;3.15;;
43248;SDS011;29216;51.248;6.808;2022-12-20T13:00:54;7.07;;;3.58;;
43248;SDS011;29216;51.248;6.808;2022-12-20T13:09:16;6.13;;;3.33;;
43248;SDS011;29216;51.248;6.808;2022-12-20T13:11:44;5.30;;;3.00;;
43248;SDS011;29216;51.248;6.808;2022-12-20T13:22:12;5.07;;;3.55;;
43248;SDS011;29216;51.248;6.808;2022-12-20T13:24:59;6.82;;;3.58;;
43248;SDS011;29216;51.248;6.808;2022-12-20T13:27:29;6.75;;;3.28;;
43248;SDS011;29216;51.248;6.808;2022-12-20T13:40:20;9.48;;;4.22;;
43248;SDS011;29216;51.248;6.808;2022-12-20T13:43:01;5.80;;;3.85;;
43248;SDS011;29216;51.248;6.808;2022-12-20T13:45:31;7.95;;;4.10;;
43248;SDS011;29216;51.248;6.808;2022-12-20T13:48:01;7.93;;;3.70;;
43248;SDS011;29216;51.248;6.808;2022-12-20T13:52:54;10.55;;;4.07;;
43248;SDS011;29216;51.248;6.808;2022-12-20T13:55:29;10.43;;;4.50;;
43248;SDS011;29216;51.248;6.808;2022-12-20T13:57:57;9.50;;;4.47;;
43248;SDS011;29216;51.248;6.808;2022-12-20T14:00:29;8.65;;;4.55;;
43248;SDS011;29216;51.248;6.808;2022-12-20T14:02:55;8.82;;;4.38;;
43248;SDS011;29216;51.248;6.808;2022-12-20T14:08:33;9.98;;;4.47;;
43248;SDS011;29216;51.248;6.808;2022-12-20T14:10:44;11.18;;;4.47;;
43248;SDS011;29216;51.248;6.808;2022-12-20T14:13:20;9.38;;;4.40;;
43248;SDS011;29216;51.248;6.808;2022-12-20T14:15:48;12.27;;;5.68;;
43248;SDS011;29216;51.248;6.808;2022-12-20T14:18:18;6.65;;;4.65;;
43248;SDS011;29216;51.248;6.808;2022-12-20T14:20:46;9.48;;;5.10;;
43248;SDS011;29216;51.248;6.808;2022-12-20T14:23:16;14.30;;;5.97;;
43248;SDS011;29216;51.248;6.808;2022-12-20T14:25:51;6.82;;;4.57;;
43248;SDS011;29216;51.248;6.808;2022-12-20T14:30:55;8.68;;;4.80;;
43248;SDS011;29216;51.248;6.808;2022-12-20T14:35:54;7.15;;;4.88;;
43248;SDS011;29216;51.248;6.808;2022-12-20T14:38:21;8.27;;;5.20;;
43248;SDS011;29216;51.248;6.808;2022-12-20T14:40:48;11.38;;;5.15;;
43248;SDS011;29216;51.248;6.808;2022-12-20T14:43:14;12.27;;;5.10;;
43248;SDS011;29216;51.248;6.808;2022-12-20T14:45:47;11.50;;;5.72;;
43248;SDS011;29216;51.248;6.808;2022-12-20T14:48:14;9.93;;;5.25;;
43248;SDS011;29216;51.248;6.808;2022-12-20T14:50:44;8.13;;;4.60;;
43248;SDS011;29216;51.248;6.808;2022-12-20T14:53:19;9.93;;;5.13;;
43248;SDS011;29216;51.248;6.808;2022-12-20T14:55:49;9.15;;;5.10;;
43248;SDS011;29216;51.248;6.808;2022-12-20T14:58:25;10.13;;;5.28;;
43248;SDS011;29216;51.248;6.808;2022-12-20T15:03:27;13.02;;;5.32;;
43248;SDS011;29216;51.248;6.808;2022-12-20T15:05:57;16.00;;;5.32;;
43248;SDS011;29216;51.248;6.808;2022-12-20T15:08:28;12.90;;;5.13;;
43248;SDS011;29216;51.248;6.808;2022-12-20T15:11:01;7.55;;;4.90;;
43248;SDS011;29216;51.248;6.808;2022-12-20T15:13:46;8.60;;;4.97;;
43248;SDS011;29216;51.248;6.808;2022-12-20T15:18:42;13.75;;;5.65;;
43248;SDS011;29216;51.248;6.808;2022-12-20T15:21:51;12.98;;;5.68;;
43248;SDS011;29216;51.248;6.808;2022-12-20T15:24:05;13.88;;;5.50;;
43248;SDS011;29216;51.248;6.808;2022-12-20T15:26:35;10.70;;;5.22;;
43248;SDS011;29216;51.248;6.808;2022-12-20T15:29:01;10.02;;;5.40;;
43248;SDS011;29216;51.248;6.808;2022-12-20T15:31:27;8.98;;;5.30;;
43248;SDS011;29216;51.248;6.808;2022-12-20T15:33:53;13.15;;;5.50;;
43248;SDS011;29216;51.248;6.808;2022-12-20T15:36:26;11.55;;;5.82;;
43248;SDS011;29216;51.248;6.808;2022-12-20T15:38:56;12.35;;;5.32;;
43248;SDS011;29216;51.248;6.808;2022-12-20T15:41:23;9.18;;;5.38;;
43248;SDS011;29216;51.248;6.808;2022-12-20T15:43:55;13.77;;;5.30;;
43248;SDS011;29216;51.248;6.808;2022-12-20T15:46:22;14.07;;;4.97;;
43248;SDS011;29216;51.248;6.808;2022-12-20T15:48:48;10.07;;;5.38;;
43248;SDS011;29216;51.248;6.808;2022-12-20T15:51:20;11.95;;;5.30;;
43248;SDS011;29216;51.248;6.808;2022-12-20T15:53:47;11.02;;;4.57;;
43248;SDS011;29216;51.248;6.808;2022-12-20T15:56:15;8.45;;;5.53;;
43248;SDS011;29216;51.248;6.808;2022-12-20T15:58:45;7.60;;;5.45;;
43248;SDS011;29216;51.248;6.808;2022-12-20T16:01:16;8.10;;;5.18;;
43248;SDS011;29216;51.248;6.808;2022-12-20T16:04:01;10.65;;;5.05;;
43248;SDS011;29216;51.248;6.808;2022-12-20T16:06:27;12.25;;;4.72;;
43248;SDS011;29216;51.248;6.808;2022-12-20T16:08:52;10.82;;;4.93;;
43248;SDS011;29216;51.248;6.808;2022-12-20T16:11:21;11.18;;;5.13;;
43248;SDS011;29216;51.248;6.808;2022-12-20T16:13:49;9.55;;;5.70;;
43248;SDS011;29216;51.248;6.808;2022-12-20T16:16:19;14.30;;;4.97;;
43248;SDS011;29216;51.248;6.808;2022-12-20T16:18:47;13.57;;;5.68;;
43248;SDS011;29216;51.248;6.808;2022-12-20T16:21:16;7.07;;;4.85;;
43248;SDS011;29216;51.248;6.808;2022-12-20T16:23:44;11.02;;;5.60;;
43248;SDS011;29216;51.248;6.808;2022-12-20T16:26:13;8.68;;;5.47;;
43248;SDS011;29216;51.248;6.808;2022-12-20T16:28:40;11.25;;;5.43;;
43248;SDS011;29216;51.248;6.808;2022-12-20T16:33:46;12.55;;;5.25;;
43248;SDS011;29216;51.248;6.808;2022-12-20T16:36:13;10.75;;;5.75;;
43248;SDS011;29216;51.248;6.808;2022-12-20T16:38:39;12.02;;;5.32;;
43248;SDS011;29216;51.248;6.808;2022-12-20T16:41:12;16.27;;;6.10;;
43248;SDS011;29216;51.248;6.808;2022-12-20T16:43:40;8.75;;;5.15;;
43248;SDS011;29216;51.248;6.808;2022-12-20T16:46:08;9.27;;;5.38;;
43248;SDS011;29216;51.248;6.808;2022-12-20T16:48:38;10.73;;;5.57;;
43248;SDS011;29216;51.248;6.808;2022-12-20T16:51:24;7.68;;;4.82;;
43248;SDS011;29216;51.248;6.808;2022-12-20T16:53:52;7.72;;;5.10;;
43248;SDS011;29216;51.248;6.808;2022-12-20T16:56:19;10.52;;;5.40;;
43248;SDS011;29216;51.248;6.808;2022-12-20T16:58:45;10.30;;;5.72;;
43248;SDS011;29216;51.248;6.808;2022-12-20T17:01:14;7.15;;;5.00;;
43248;SDS011;29216;51.248;6.808;2022-12-20T17:03:48;16.73;;;5.70;;
43248;SDS011;29216;51.248;6.808;2022-12-20T17:06:15;7.63;;;4.93;;
43248;SDS011;29216;51.248;6.808;2022-12-20T17:08:42;11.30;;;5.75;;
43248;SDS011;29216;51.248;6.808;2022-12-20T17:11:13;12.07;;;5.72;;
43248;SDS011;29216;51.248;6.808;2022-12-20T17:13:39;10.13;;;5.32;;
43248;SDS011;29216;51.248;6.808;2022-12-20T17:16:05;11.07;;;4.88;;
43248;SDS011;29216;51.248;6.808;2022-12-20T17:18:31;13.48;;;5.32;;
43248;SDS011;29216;51.248;6.808;2022-12-20T17:20:56;11.05;;;5.47;;
43248;SDS011;29216;51.248;6.808;2022-12-20T17:23:24;9.65;;;5.18;;